createdAt,value
2022-11-13T00:00:06.347Z,14.27
2022-11-13T00:02:54.351Z,12.50
2022-11-13T00:05:40.976Z,12.87
2022-11-13T00:08:28.020Z,14.00
2022-11-13T00:11:16.039Z,12.63
2022-11-13T00:14:02.675Z,14.73
2022-11-13T00:16:49.233Z,15.43
2022-11-13T00:19:37.736Z,14.17
2022-11-13T00:22:24.500Z,14.10
2022-11-13T00:25:11.253Z,14.90
2022-11-13T00:27:57.892Z,14.47
2022-11-13T00:30:44.604Z,14.97
2022-11-13T00:34:02.112Z,13.63
2022-11-13T00:36:39.789Z,14.30
2022-11-13T00:39:26.537Z,16.90
2022-11-13T00:42:13.189Z,14.93
2022-11-13T00:44:59.713Z,15.37
2022-11-13T00:47:46.299Z,15.40
2022-11-13T00:50:33.158Z,13.63
2022-11-13T00:53:21.427Z,14.90
2022-11-13T00:56:08.939Z,16.17
2022-11-13T00:58:55.957Z,16.00
2022-11-13T01:01:43.063Z,13.77
2022-11-13T01:04:30.136Z,14.67
2022-11-13T01:07:17.911Z,13.80
2022-11-13T01:10:08.024Z,13.67
2022-11-13T01:12:55.663Z,14.43
2022-11-13T01:15:42.690Z,13.90
2022-11-13T01:18:29.664Z,14.37
2022-11-13T01:21:19.191Z,14.87
2022-11-13T01:24:06.166Z,15.33
2022-11-13T01:26:54.140Z,15.70
2022-11-13T01:29:40.686Z,14.50
2022-11-13T01:32:27.632Z,17.93
2022-11-13T01:35:14.867Z,14.27
2022-11-13T01:38:01.741Z,16.30
2022-11-13T01:40:48.453Z,15.33
2022-11-13T01:43:38.021Z,15.57
2022-11-13T01:46:30.307Z,14.60
2022-11-13T01:49:26.879Z,16.27
2022-11-13T01:52:16.846Z,13.93
2022-11-13T01:55:06.131Z,14.53
2022-11-13T01:57:52.757Z,14.00
2022-11-13T02:00:40.829Z,13.90
2022-11-13T02:03:27.283Z,13.60
2022-11-13T02:06:14.466Z,14.77
2022-11-13T02:09:01.357Z,13.37
2022-11-13T02:11:47.913Z,14.40
2022-11-13T02:14:35.027Z,13.87
2022-11-13T02:17:26.314Z,15.63
2022-11-13T02:20:14.140Z,14.73
2022-11-13T02:23:04.441Z,13.10
2022-11-13T02:25:54.634Z,14.13
2022-11-13T02:28:41.542Z,14.07
2022-11-13T02:31:28.465Z,13.47
2022-11-13T02:34:15.089Z,13.43
2022-11-13T02:37:02.031Z,12.57
2022-11-13T02:39:48.542Z,12.20
2022-11-13T02:42:36.819Z,14.83
2022-11-13T02:45:24.040Z,12.60
2022-11-13T02:48:10.797Z,14.87
2022-11-13T02:50:57.378Z,15.57
2022-11-13T02:53:44.120Z,12.77
2022-11-13T02:56:30.736Z,15.27
2022-11-13T02:59:18.671Z,15.77
2022-11-13T03:02:05.271Z,14.87
2022-11-13T03:05:11.443Z,14.43
2022-11-13T03:07:58.400Z,14.23
2022-11-13T03:10:45.535Z,16.47
2022-11-13T03:13:32.071Z,14.87
2022-11-13T03:16:20.184Z,14.47
2022-11-13T03:19:07.259Z,16.10
2022-11-13T03:21:54.005Z,16.50
2022-11-13T03:24:41.476Z,14.90
2022-11-13T03:27:28.444Z,15.30
2022-11-13T03:30:15.083Z,14.70
2022-11-13T03:33:03.219Z,16.17
2022-11-13T03:35:49.729Z,15.77
2022-11-13T03:38:36.617Z,17.93
2022-11-13T03:41:24.291Z,19.13
2022-11-13T03:44:11.272Z,18.83
2022-11-13T03:46:58.088Z,17.97
2022-11-13T03:49:45.989Z,15.20
2022-11-13T03:52:32.783Z,18.00
2022-11-13T03:55:20.248Z,16.03
2022-11-13T03:58:07.140Z,16.80
2022-11-13T04:00:55.324Z,16.30
2022-11-13T04:03:42.366Z,15.60
2022-11-13T04:06:30.380Z,15.60
2022-11-13T04:09:17.430Z,16.67
2022-11-13T04:12:04.495Z,16.00
2022-11-13T04:14:51.214Z,18.47
2022-11-13T04:17:38.544Z,16.63
2022-11-13T04:20:25.384Z,16.03
2022-11-13T04:23:15.807Z,17.03
2022-11-13T04:26:02.357Z,18.73
2022-11-13T04:28:48.833Z,15.83
2022-11-13T04:31:35.606Z,20.50
2022-11-13T04:34:22.221Z,15.97
2022-11-13T04:37:09.368Z,16.03
2022-11-13T04:39:57.554Z,15.80
2022-11-13T04:42:49.216Z,18.57
2022-11-13T04:45:36.355Z,16.00
2022-11-13T04:48:23.463Z,17.40
2022-11-13T04:51:10.473Z,16.13
2022-11-13T04:53:57.404Z,17.50
2022-11-13T04:56:45.667Z,18.17
2022-11-13T04:59:32.279Z,17.20
2022-11-13T05:02:19.205Z,18.60
2022-11-13T05:05:06.570Z,17.63
2022-11-13T05:07:54.143Z,16.37
2022-11-13T05:10:41.134Z,16.40
2022-11-13T05:13:31.584Z,17.57
2022-11-13T05:16:18.581Z,18.23
2022-11-13T05:19:06.905Z,17.97
2022-11-13T05:21:53.419Z,17.23
2022-11-13T05:24:40.116Z,17.80
2022-11-13T05:27:26.877Z,15.90
2022-11-13T05:30:15.075Z,16.50
2022-11-13T05:33:01.728Z,16.13
2022-11-13T05:35:48.867Z,17.33
2022-11-13T05:38:36.725Z,17.47
2022-11-13T05:41:23.984Z,17.93
2022-11-13T05:44:10.706Z,16.27
2022-11-13T05:46:59.070Z,18.97
2022-11-13T05:49:46.696Z,17.20
2022-11-13T05:52:33.305Z,15.70
2022-11-13T05:55:23.288Z,16.33
2022-11-13T05:58:11.793Z,16.97
2022-11-13T06:01:07.527Z,14.97
2022-11-13T06:03:56.174Z,16.70
2022-11-13T06:06:43.514Z,16.10
2022-11-13T06:09:30.492Z,16.73
2022-11-13T06:12:17.188Z,16.77
2022-11-13T06:15:04.058Z,14.77
2022-11-13T06:17:50.969Z,16.77
2022-11-13T06:20:38.913Z,15.80
2022-11-13T06:23:25.667Z,15.30
2022-11-13T06:26:13.932Z,17.17
2022-11-13T06:29:01.099Z,16.70
2022-11-13T06:31:47.425Z,14.73
2022-11-13T06:34:34.029Z,16.83
2022-11-13T06:37:22.111Z,15.27
2022-11-13T06:40:10.218Z,15.30
2022-11-13T06:42:56.986Z,16.63
2022-11-13T06:45:43.851Z,15.70
2022-11-13T06:48:30.575Z,17.40
2022-11-13T06:51:18.719Z,15.07
2022-11-13T06:54:06.835Z,16.40
2022-11-13T06:56:53.352Z,14.50
2022-11-13T06:59:39.817Z,16.67
2022-11-13T07:02:26.390Z,16.90
2022-11-13T07:05:13.063Z,16.10
2022-11-13T07:07:59.976Z,16.43
2022-11-13T07:10:53.904Z,16.03
2022-11-13T07:13:40.994Z,17.27
2022-11-13T07:16:38.885Z,14.53
2022-11-13T07:19:36.504Z,15.13
2022-11-13T07:22:23.176Z,15.00
2022-11-13T07:25:11.180Z,14.80
2022-11-13T07:27:59.455Z,14.87
2022-11-13T07:30:46.035Z,13.27
2022-11-13T07:33:32.884Z,14.03
2022-11-13T07:36:20.060Z,13.73
2022-11-13T07:39:07.240Z,14.70
2022-11-13T07:41:54.131Z,13.60
2022-11-13T07:44:54.443Z,14.27
2022-11-13T07:47:41.612Z,14.00
2022-11-13T07:50:29.037Z,13.60
2022-11-13T07:53:15.816Z,13.97
2022-11-13T07:56:03.197Z,12.90
2022-11-13T07:58:50.092Z,13.30
2022-11-13T08:01:38.459Z,13.10
2022-11-13T08:04:25.569Z,12.57
2022-11-13T08:07:13.365Z,13.80
2022-11-13T08:10:00.345Z,12.77
2022-11-13T08:12:47.194Z,13.53
2022-11-13T08:15:35.084Z,12.43
2022-11-13T08:18:23.050Z,11.53
2022-11-13T08:21:14.720Z,13.17
2022-11-13T08:24:01.671Z,12.00
2022-11-13T08:26:48.364Z,10.27
2022-11-13T08:29:37.293Z,10.23
2022-11-13T08:32:24.148Z,10.50
2022-11-13T08:35:16.051Z,10.60
2022-11-13T08:38:06.078Z,9.67
2022-11-13T08:40:53.224Z,9.60
2022-11-13T08:43:40.407Z,10.00
2022-11-13T08:46:27.202Z,9.13
2022-11-13T08:49:14.037Z,9.27
2022-11-13T08:52:02.978Z,9.33
2022-11-13T08:54:50.693Z,9.07
2022-11-13T08:57:38.475Z,10.07
2022-11-13T09:00:27.676Z,8.63
2022-11-13T09:03:14.646Z,9.77
2022-11-13T09:06:01.350Z,8.70
2022-11-13T09:08:49.483Z,9.20
2022-11-13T09:11:36.294Z,8.00
2022-11-13T09:14:22.823Z,8.47
2022-11-13T09:17:09.195Z,8.30
2022-11-13T09:19:59.500Z,8.10
2022-11-13T09:22:49.085Z,7.40
2022-11-13T09:25:38.977Z,8.67
2022-11-13T09:28:26.012Z,7.50
2022-11-13T09:31:13.124Z,8.10
2022-11-13T09:34:00.629Z,7.80
2022-11-13T09:36:48.506Z,7.77
2022-11-13T09:39:35.424Z,10.37
2022-11-13T09:42:26.523Z,7.87
2022-11-13T09:45:15.435Z,7.20
2022-11-13T09:48:11.497Z,7.03
2022-11-13T09:51:00.793Z,6.43
2022-11-13T09:53:49.999Z,7.50
2022-11-13T09:56:41.465Z,6.93
2022-11-13T09:59:35.162Z,6.60
2022-11-13T10:02:24.817Z,6.37
2022-11-13T10:05:16.370Z,6.13
2022-11-13T10:08:09.017Z,5.60
2022-11-13T10:11:00.601Z,5.90
2022-11-13T10:13:49.372Z,5.80
2022-11-13T10:16:40.335Z,6.50
2022-11-13T10:19:29.716Z,7.17
2022-11-13T10:22:35.304Z,5.93
2022-11-13T10:25:25.419Z,6.17
2022-11-13T10:28:43.673Z,5.97
2022-11-13T10:31:22.286Z,5.37
2022-11-13T10:34:10.717Z,5.43
2022-11-13T10:37:14.025Z,5.33
2022-11-13T10:40:00.851Z,5.93
2022-11-13T10:42:47.716Z,5.17
2022-11-13T10:45:34.575Z,5.17
2022-11-13T10:48:22.264Z,4.60
2022-11-13T10:51:23.200Z,5.20
2022-11-13T10:54:23.362Z,5.27
2022-11-13T10:57:24.094Z,5.40
2022-11-13T11:00:22.552Z,5.13
2022-11-13T11:03:10.276Z,6.67
2022-11-13T11:05:58.524Z,4.93
2022-11-13T11:08:47.122Z,4.43
2022-11-13T11:11:51.292Z,4.30
2022-11-13T11:14:43.761Z,4.77
2022-11-13T11:17:39.324Z,4.40
2022-11-13T11:20:45.680Z,4.60
2022-11-13T11:23:39.218Z,5.40
2022-11-13T11:26:31.703Z,4.10
2022-11-13T11:29:22.396Z,3.90
2022-11-13T11:32:15.614Z,4.43
2022-11-13T11:35:08.269Z,4.40
2022-11-13T11:37:58.989Z,4.20
2022-11-13T11:40:49.316Z,4.70
2022-11-13T11:43:42.073Z,4.97
2022-11-13T11:46:30.533Z,5.03
2022-11-13T11:49:17.258Z,4.17
2022-11-13T11:52:14.274Z,4.10
2022-11-13T11:55:09.510Z,4.27
2022-11-13T11:58:00.401Z,3.60
2022-11-13T12:00:51.494Z,4.37
2022-11-13T12:03:53.903Z,4.30
2022-11-13T12:06:58.359Z,3.30
2022-11-13T12:09:51.406Z,3.63
2022-11-13T12:12:49.608Z,5.23
2022-11-13T12:15:40.861Z,3.97
2022-11-13T12:18:36.882Z,3.70
2022-11-13T12:21:25.364Z,5.70
2022-11-13T12:24:26.851Z,4.27
2022-11-13T12:27:23.452Z,4.37
2022-11-13T12:30:15.486Z,3.60
2022-11-13T12:33:16.215Z,4.13
2022-11-13T12:36:04.645Z,3.70
2022-11-13T12:38:59.731Z,3.47
2022-11-13T12:41:50.834Z,4.70
2022-11-13T12:44:42.320Z,3.10
2022-11-13T12:47:28.889Z,3.27
2022-11-13T12:50:31.530Z,2.60
2022-11-13T12:53:27.989Z,3.77
2022-11-13T12:56:30.827Z,2.93
2022-11-13T12:59:33.313Z,2.80
2022-11-13T13:02:45.871Z,2.80
2022-11-13T13:05:50.573Z,2.60
2022-11-13T13:09:04.183Z,3.07
2022-11-13T13:11:59.057Z,2.90
2022-11-13T13:15:01.621Z,2.60
2022-11-13T13:17:48.770Z,2.43
2022-11-13T13:20:38.154Z,2.40
2022-11-13T13:23:29.109Z,2.60
2022-11-13T13:26:21.075Z,2.40
2022-11-13T13:29:17.907Z,3.27
2022-11-13T13:32:20.608Z,2.97
2022-11-13T13:35:15.160Z,2.70
2022-11-13T13:38:06.380Z,2.70
2022-11-13T13:41:06.427Z,2.87
2022-11-13T13:44:02.420Z,2.57
2022-11-13T13:46:51.596Z,2.63
2022-11-13T13:49:38.633Z,3.17
2022-11-13T13:52:29.322Z,3.30
2022-11-13T13:55:19.317Z,2.60
2022-11-13T13:58:09.888Z,2.77
2022-11-13T14:01:17.801Z,2.70
2022-11-13T14:04:12.755Z,4.00
2022-11-13T14:07:01.570Z,3.27
2022-11-13T14:09:49.010Z,4.37
2022-11-13T14:12:36.459Z,4.10
2022-11-13T14:15:27.399Z,6.53
2022-11-13T14:18:18.846Z,5.23
2022-11-13T14:21:10.191Z,4.60
2022-11-13T14:23:57.791Z,6.13
2022-11-13T14:26:45.907Z,6.77
2022-11-13T14:29:36.978Z,12.07
2022-11-13T14:32:26.222Z,9.60
2022-11-13T14:35:20.014Z,11.13
2022-11-13T14:38:07.176Z,13.03
2022-11-13T14:40:55.138Z,14.90
2022-11-13T14:43:50.903Z,11.80
2022-11-13T14:46:40.294Z,9.87
2022-11-13T14:49:29.138Z,10.23
2022-11-13T14:52:24.531Z,9.10
2022-11-13T14:55:23.391Z,8.27
2022-11-13T14:58:14.354Z,6.93
2022-11-13T15:01:14.314Z,7.67
2022-11-13T15:04:02.255Z,7.13
2022-11-13T15:06:50.982Z,7.83
2022-11-13T15:09:39.965Z,6.03
2022-11-13T15:12:28.053Z,4.77
2022-11-13T15:15:17.450Z,5.43
2022-11-13T15:18:04.983Z,4.83
2022-11-13T15:20:52.626Z,5.57
2022-11-13T15:23:39.729Z,3.80
2022-11-13T15:26:28.677Z,5.43
2022-11-13T15:29:15.697Z,3.87
2022-11-13T15:32:05.319Z,4.07
2022-11-13T15:34:52.537Z,4.10
2022-11-13T15:37:41.455Z,5.47
2022-11-13T15:40:28.609Z,5.17
2022-11-13T15:43:20.398Z,5.93
2022-11-13T15:46:11.155Z,5.43
2022-11-13T15:48:58.190Z,5.40
2022-11-13T15:51:46.623Z,5.60
2022-11-13T15:54:34.926Z,6.70
2022-11-13T15:57:23.119Z,4.77
2022-11-13T16:00:17.178Z,6.33
2022-11-13T16:03:11.486Z,4.97
2022-11-13T16:05:59.654Z,4.67
2022-11-13T16:08:50.040Z,5.63
2022-11-13T16:11:37.141Z,4.80
2022-11-13T16:14:25.241Z,7.33
2022-11-13T16:17:16.664Z,9.60
2022-11-13T16:20:04.473Z,5.03
2022-11-13T16:22:51.980Z,5.03
2022-11-13T16:25:39.093Z,4.13
2022-11-13T16:28:26.295Z,4.10
2022-11-13T16:31:13.392Z,5.37
2022-11-13T16:34:01.488Z,4.80
2022-11-13T16:36:49.034Z,4.53
2022-11-13T16:39:36.161Z,6.13
2022-11-13T16:42:29.806Z,5.20
2022-11-13T16:45:18.949Z,4.17
2022-11-13T16:48:06.688Z,5.03
2022-11-13T16:50:55.205Z,4.87
2022-11-13T16:53:42.573Z,7.17
2022-11-13T16:56:30.994Z,4.70
2022-11-13T16:59:18.251Z,5.40
2022-11-13T17:02:06.424Z,6.63
2022-11-13T17:04:57.404Z,6.90
2022-11-13T17:07:46.331Z,7.50
2022-11-13T17:10:33.658Z,7.20
2022-11-13T17:13:22.063Z,5.80
2022-11-13T17:16:11.602Z,6.23
2022-11-13T17:18:59.161Z,6.80
2022-11-13T17:21:45.988Z,6.27
2022-11-13T17:24:34.665Z,7.13
2022-11-13T17:27:22.177Z,7.13
2022-11-13T17:30:10.496Z,7.17
2022-11-13T17:32:58.137Z,7.87
2022-11-13T17:35:46.648Z,7.40
2022-11-13T17:38:34.467Z,11.13
2022-11-13T17:41:23.173Z,8.98
2022-11-13T17:44:10.725Z,8.37
2022-11-13T17:46:57.920Z,7.30
2022-11-13T17:49:46.144Z,8.00
2022-11-13T17:52:33.516Z,7.43
2022-11-13T17:55:20.741Z,8.87
2022-11-13T17:58:09.092Z,7.97
2022-11-13T18:01:05.783Z,8.40
2022-11-13T18:03:56.667Z,11.20
2022-11-13T18:06:43.678Z,8.53
2022-11-13T18:09:31.285Z,8.97
2022-11-13T18:12:19.123Z,8.00
2022-11-13T18:15:09.402Z,8.57
2022-11-13T18:17:56.488Z,7.87
2022-11-13T18:20:43.943Z,7.70
2022-11-13T18:23:31.486Z,8.10
2022-11-13T18:26:20.086Z,7.93
2022-11-13T18:29:07.525Z,7.43
2022-11-13T18:31:56.008Z,8.80
2022-11-13T18:34:42.935Z,9.47
2022-11-13T18:37:30.617Z,8.07
2022-11-13T18:40:19.704Z,9.23
2022-11-13T18:43:07.028Z,10.07
2022-11-13T18:45:58.896Z,9.90
2022-11-13T18:48:49.644Z,9.83
2022-11-13T18:51:38.031Z,9.13
2022-11-13T18:54:25.076Z,8.67
2022-11-13T18:57:13.027Z,10.37
2022-11-13T18:59:59.977Z,11.63
2022-11-13T19:02:47.438Z,10.37
2022-11-13T19:05:36.307Z,12.83
2022-11-13T19:08:23.479Z,11.53
2022-11-13T19:11:12.131Z,9.83
2022-11-13T19:13:59.661Z,9.10
2022-11-13T19:16:46.505Z,9.97
2022-11-13T19:19:33.506Z,10.60
2022-11-13T19:22:23.296Z,9.70
2022-11-13T19:25:11.437Z,10.87
2022-11-13T19:28:00.505Z,10.73
2022-11-13T19:30:49.145Z,10.90
2022-11-13T19:33:37.088Z,14.03
2022-11-13T19:36:26.023Z,12.40
2022-11-13T19:39:17.027Z,11.30
2022-11-13T19:42:04.915Z,12.73
2022-11-13T19:44:53.875Z,10.93
2022-11-13T19:47:42.439Z,11.33
2022-11-13T19:50:29.419Z,10.93
2022-11-13T19:53:16.464Z,11.30
2022-11-13T19:56:06.404Z,11.17
2022-11-13T19:58:54.776Z,12.53
2022-11-13T20:01:48.887Z,10.17
2022-11-13T20:04:40.299Z,10.63
2022-11-13T20:07:27.895Z,8.73
2022-11-13T20:10:18.658Z,10.83
2022-11-13T20:13:07.681Z,8.73
2022-11-13T20:15:55.879Z,8.97
2022-11-13T20:18:44.549Z,9.33
2022-11-13T20:21:33.067Z,8.53
2022-11-13T20:24:25.255Z,10.33
2022-11-13T20:27:13.030Z,10.13
2022-11-13T20:30:07.208Z,7.67
2022-11-13T20:32:55.847Z,8.93
2022-11-13T20:35:44.174Z,7.90
2022-11-13T20:39:12.932Z,9.17
2022-11-13T20:42:00.255Z,9.13
2022-11-13T20:44:48.448Z,10.60
2022-11-13T20:47:38.243Z,10.87
2022-11-13T20:50:46.109Z,10.77
2022-11-13T20:53:34.053Z,10.13
2022-11-13T20:56:31.420Z,10.50
2022-11-13T20:59:20.120Z,11.10
2022-11-13T21:02:08.057Z,13.83
2022-11-13T21:04:56.811Z,10.43
2022-11-13T21:07:44.359Z,10.63
2022-11-13T21:10:31.613Z,10.97
2022-11-13T21:13:19.213Z,12.87
2022-11-13T21:16:07.374Z,9.93
2022-11-13T21:18:56.310Z,10.70
2022-11-13T21:21:45.085Z,10.30
2022-11-13T21:24:32.208Z,11.40
2022-11-13T21:27:19.349Z,9.23
2022-11-13T21:30:07.280Z,11.20
2022-11-13T21:32:54.846Z,9.47
2022-11-13T21:35:41.574Z,9.53
2022-11-13T21:38:30.070Z,12.97
2022-11-13T21:41:23.414Z,10.33
2022-11-13T21:44:11.669Z,10.00
2022-11-13T21:46:58.773Z,10.43
2022-11-13T21:49:47.420Z,10.10
2022-11-13T21:52:34.377Z,11.60
2022-11-13T21:55:22.411Z,9.77
2022-11-13T21:58:09.023Z,10.97
2022-11-13T22:00:55.661Z,10.30
2022-11-13T22:03:42.816Z,12.00
2022-11-13T22:06:31.562Z,14.93
2022-11-13T22:09:20.095Z,14.63
2022-11-13T22:12:09.408Z,15.23
2022-11-13T22:14:56.040Z,12.60
2022-11-13T22:17:42.715Z,13.20
2022-11-13T22:20:29.411Z,11.87
2022-11-13T22:23:15.994Z,13.00
2022-11-13T22:26:04.307Z,13.03
2022-11-13T22:28:53.158Z,13.27
2022-11-13T22:31:39.805Z,11.93
2022-11-13T22:34:26.822Z,14.87
2022-11-13T22:37:13.905Z,14.77
2022-11-13T22:40:00.851Z,13.53
2022-11-13T22:42:47.900Z,12.23
2022-11-13T22:45:35.942Z,12.03
2022-11-13T22:48:22.645Z,12.27
2022-11-13T22:51:13.271Z,15.57
2022-11-13T22:54:01.264Z,14.40
2022-11-13T22:56:48.504Z,14.37
2022-11-13T22:59:35.793Z,12.83
2022-11-13T23:02:29.048Z,13.00
2022-11-13T23:05:16.956Z,11.10
2022-11-13T23:08:03.821Z,11.43
2022-11-13T23:10:53.641Z,11.17
2022-11-13T23:13:41.841Z,10.57
2022-11-13T23:16:28.859Z,10.67
2022-11-13T23:19:17.061Z,9.60
2022-11-13T23:22:04.099Z,10.43
2022-11-13T23:24:50.640Z,12.17
2022-11-13T23:27:37.477Z,10.10
2022-11-13T23:30:24.146Z,10.13
2022-11-13T23:33:11.007Z,9.63
2022-11-13T23:35:59.150Z,9.77
2022-11-13T23:38:46.507Z,9.17
2022-11-13T23:41:33.538Z,8.87
2022-11-13T23:44:20.342Z,9.07
2022-11-13T23:47:06.882Z,8.20
2022-11-13T23:49:53.602Z,8.33
2022-11-13T23:52:41.488Z,7.33
2022-11-13T23:55:28.376Z,8.83
2022-11-13T23:58:16.719Z,7.30
